Fuzhou Changle International Airport
ZSFZ : now visible

Airfield :











YOU CAN JOIN US ON...

 
LOGIN :

Register | Disclaimer

   EN    FR    IT 

 









Legend :    VFR   Marginal VFR   IFR   Intensive IFR   Very Intensive IFR
Visi :
Ceiling :
>= 8 km
>= 3000ft
5 to 8 km
1000 to 3000 ft
1500m to 5 km
500 to 1000 ft
800 to 1500m
200 to 500 ft
< 800m
< 200 ft
Symbols :   Thunderstorms  Fog  Heavy snow  Heavy precipitations  Wind > 20 kt







- Airport Elevation : 46 ft
- IATA code : FOC


ZSFZ - Fuzhou Changle International

CURRENT METAR :
  • 210800Z 03004MPS 5000 -RA BR BKN004 OVC008 12/12 Q1020 BECMG TL0900 BKN005

EXPIRED METARs :
  • 210700Z 03005MPS 4500 -RA BR BKN005 OVC008 12/12 Q1020 BECMG TL0800 RA BKN004
  • 210600Z 06005MPS 3200 -RA BR SCT002 BKN003 OVC009 12/11 Q1019 NOSIG

TAF TAF ZSFZ
Valid from the 21 at 06:00 until the 22 at 06:00 UTC


210309Z 2106/2206 03005MPS 3200 -RA BR SCT003 OVC010 TX13/2106Z TN10/2121Z
TEMPO 2108/2114 2000 TSRA BKN003 OVC009 FEW025CB
BECMG 2111/2112 1400 SHRA BKN003 OVC008
BECMG 2120/2121 4000 BR SCT004 BKN010
ZSHA FIR / Asia



MET'MAP, your aeronautical weather chart ! - Copyright ORBIFLY December 2007 - Disclaimer

ORBIFLY MET'MAP TEAM :

Programming & Development : Alexandra Zaïnal
Concept & Development : Baudouin d'Aumeries
Co-Development & Prog : Marc-Olivier Méhu
Technical & hardware support : Manuel Goepfert

Contact : metmap@orbifly.com




SOURCES & CREDITS :

   NOAA       Earth
Advisory